createdAt,value
2022-11-30T00:01:36.192Z,11.10
2022-11-30T00:04:02.598Z,11.57
2022-11-30T00:06:29.153Z,11.68
2022-11-30T00:08:56.336Z,12.10
2022-11-30T00:11:23.768Z,11.65
2022-11-30T00:13:50.393Z,12.45
2022-11-30T00:16:16.900Z,11.95
2022-11-30T00:18:43.432Z,10.52
2022-11-30T00:21:11.785Z,11.25
2022-11-30T00:23:39.370Z,10.63
2022-11-30T00:26:07.449Z,10.88
2022-11-30T00:28:34.480Z,11.75
2022-11-30T00:31:01.880Z,10.43
2022-11-30T00:33:28.895Z,11.00
2022-11-30T00:35:56.109Z,11.45
2022-11-30T00:38:22.774Z,10.00
2022-11-30T00:40:49.181Z,10.27
2022-11-30T00:43:15.575Z,10.40
2022-11-30T00:45:42.022Z,10.73
2022-11-30T00:48:08.496Z,10.23
2022-11-30T00:50:34.897Z,11.07
2022-11-30T00:53:01.317Z,10.60
2022-11-30T00:55:30.362Z,10.75
2022-11-30T00:57:56.900Z,9.80
2022-11-30T01:00:23.362Z,11.30
2022-11-30T01:02:53.446Z,10.65
2022-11-30T01:05:19.866Z,10.35
2022-11-30T01:07:46.317Z,10.45
2022-11-30T01:10:12.961Z,10.02
2022-11-30T01:12:39.336Z,10.43
2022-11-30T01:15:05.892Z,10.82
2022-11-30T01:17:33.290Z,10.73
2022-11-30T01:19:59.766Z,11.13
2022-11-30T01:22:26.192Z,9.88
2022-11-30T01:24:52.660Z,10.15
2022-11-30T01:27:19.049Z,9.80
2022-11-30T01:29:45.459Z,10.57
2022-11-30T01:32:11.844Z,10.68
2022-11-30T01:34:38.467Z,9.85
2022-11-30T01:37:04.910Z,10.20
2022-11-30T01:39:31.352Z,10.18
2022-11-30T01:41:57.782Z,10.38
2022-11-30T01:44:26.492Z,9.88
2022-11-30T01:47:10.465Z,10.88
2022-11-30T01:49:39.327Z,9.43
2022-11-30T01:52:09.750Z,9.60
2022-11-30T01:54:38.450Z,10.90
2022-11-30T01:57:16.675Z,9.68
2022-11-30T01:59:43.081Z,10.15
2022-11-30T02:02:09.708Z,10.52
2022-11-30T02:04:38.010Z,10.55
2022-11-30T02:07:05.948Z,9.82
2022-11-30T02:09:34.369Z,10.93
2022-11-30T02:12:01.337Z,11.23
2022-11-30T02:14:37.942Z,10.75
2022-11-30T02:17:04.581Z,10.93
2022-11-30T02:19:49.399Z,11.13
2022-11-30T02:22:21.852Z,10.75
2022-11-30T02:27:33.462Z,10.95
2022-11-30T02:30:10.798Z,10.00
2022-11-30T02:32:45.764Z,10.80
2022-11-30T02:35:14.652Z,11.15
2022-11-30T02:37:41.862Z,11.27
2022-11-30T02:40:09.619Z,10.63
2022-11-30T02:42:36.020Z,10.82
2022-11-30T02:45:02.847Z,10.60
2022-11-30T02:47:29.332Z,10.23
2022-11-30T02:50:07.803Z,10.38
2022-11-30T02:52:34.588Z,10.15
2022-11-30T02:55:02.282Z,11.35
2022-11-30T02:57:28.702Z,11.18
2022-11-30T02:59:55.656Z,11.27
2022-11-30T03:02:22.180Z,10.68
2022-11-30T03:04:48.829Z,11.18
2022-11-30T03:07:15.487Z,11.48
2022-11-30T03:09:41.893Z,10.95
2022-11-30T03:12:08.319Z,11.60
2022-11-30T03:14:34.757Z,10.80
2022-11-30T03:17:01.410Z,11.23
2022-11-30T03:19:27.838Z,10.93
2022-11-30T03:21:54.241Z,10.63
2022-11-30T03:24:20.703Z,11.88
2022-11-30T03:26:47.203Z,11.40
2022-11-30T03:29:13.598Z,11.50
2022-11-30T03:31:40.033Z,10.98
2022-11-30T03:34:06.556Z,10.77
2022-11-30T03:36:33.072Z,10.52
2022-11-30T03:38:59.646Z,11.43
2022-11-30T03:41:26.104Z,10.02
2022-11-30T03:43:52.567Z,11.15
2022-11-30T03:46:19.018Z,11.73
2022-11-30T03:48:45.574Z,11.70
2022-11-30T03:51:12.470Z,11.52
2022-11-30T03:53:38.899Z,11.10
2022-11-30T03:56:06.385Z,11.65
2022-11-30T03:58:33.169Z,11.60
2022-11-30T04:01:10.013Z,11.88
2022-11-30T04:03:36.689Z,10.77
2022-11-30T04:06:03.582Z,11.65
2022-11-30T04:08:30.640Z,12.13
2022-11-30T04:10:57.944Z,11.57
2022-11-30T04:13:24.875Z,11.77
2022-11-30T04:15:51.690Z,11.05
2022-11-30T04:18:18.847Z,10.88
2022-11-30T04:20:45.345Z,12.05
2022-11-30T04:23:12.545Z,11.38
2022-11-30T04:25:39.505Z,10.88
2022-11-30T04:28:06.031Z,11.88
2022-11-30T04:30:33.273Z,11.60
2022-11-30T04:32:59.705Z,11.70
2022-11-30T04:35:26.284Z,12.93
2022-11-30T04:37:52.673Z,12.07
2022-11-30T04:40:19.136Z,12.60
2022-11-30T04:42:45.504Z,11.38
2022-11-30T04:45:12.470Z,11.77
2022-11-30T04:47:38.996Z,12.55
2022-11-30T04:50:06.414Z,11.27
2022-11-30T04:52:32.915Z,11.23
2022-11-30T04:54:59.384Z,12.18
2022-11-30T04:57:25.775Z,12.18
2022-11-30T04:59:52.373Z,11.43
2022-11-30T05:02:18.771Z,11.80
2022-11-30T05:04:45.512Z,11.73
2022-11-30T05:07:12.276Z,12.82
2022-11-30T05:09:38.693Z,10.10
2022-11-30T05:12:05.179Z,12.05
2022-11-30T05:14:31.574Z,12.95
2022-11-30T05:16:58.029Z,11.82
2022-11-30T05:19:24.414Z,11.60
2022-11-30T05:21:50.793Z,13.23
2022-11-30T05:24:17.263Z,12.15
2022-11-30T05:26:43.647Z,11.23
2022-11-30T05:29:10.145Z,13.73
2022-11-30T05:31:38.308Z,13.52
2022-11-30T05:34:04.762Z,11.93
2022-11-30T05:36:31.145Z,11.38
2022-11-30T05:38:57.586Z,11.18
2022-11-30T05:41:24.016Z,11.48
2022-11-30T05:43:50.397Z,11.60
2022-11-30T05:46:16.922Z,11.40
2022-11-30T05:48:43.333Z,11.63
2022-11-30T05:51:15.454Z,11.60
2022-11-30T05:53:42.510Z,11.93
2022-11-30T05:56:10.512Z,11.55
2022-11-30T05:58:37.177Z,11.63
2022-11-30T06:01:03.861Z,12.48
2022-11-30T06:03:31.046Z,10.82
2022-11-30T06:05:57.461Z,11.73
2022-11-30T06:08:24.266Z,12.10
2022-11-30T06:10:50.697Z,12.30
2022-11-30T06:13:17.200Z,11.40
2022-11-30T06:15:43.672Z,11.88
2022-11-30T06:18:11.860Z,12.68
2022-11-30T06:20:38.563Z,11.93
2022-11-30T06:23:05.143Z,11.32
2022-11-30T06:25:31.749Z,12.35
2022-11-30T06:27:58.138Z,11.80
2022-11-30T06:30:24.546Z,11.55
2022-11-30T06:32:51.504Z,10.60
2022-11-30T06:35:18.576Z,11.82
2022-11-30T06:37:45.030Z,11.20
2022-11-30T06:40:12.838Z,10.65
2022-11-30T06:42:39.525Z,11.77
2022-11-30T06:45:06.700Z,10.70
2022-11-30T06:47:33.372Z,10.77
2022-11-30T06:49:59.746Z,11.25
2022-11-30T06:52:26.181Z,11.20
2022-11-30T06:54:52.536Z,11.73
2022-11-30T06:57:18.967Z,11.82
2022-11-30T06:59:46.708Z,10.82
2022-11-30T07:02:17.729Z,10.18
2022-11-30T07:04:45.089Z,11.13
2022-11-30T07:07:11.655Z,11.75
2022-11-30T07:09:38.043Z,10.88
2022-11-30T07:12:04.768Z,10.45
2022-11-30T07:14:31.253Z,10.80
2022-11-30T07:16:57.866Z,11.07
2022-11-30T07:19:24.392Z,10.32
2022-11-30T07:21:50.807Z,11.00
2022-11-30T07:24:35.592Z,11.25
2022-11-30T07:27:03.000Z,10.60
2022-11-30T07:29:29.605Z,10.38
2022-11-30T07:31:56.232Z,12.35
2022-11-30T07:34:23.066Z,10.05
2022-11-30T07:36:49.421Z,11.07
2022-11-30T07:39:16.169Z,12.27
2022-11-30T07:41:43.115Z,11.38
2022-11-30T07:44:10.128Z,10.98
2022-11-30T07:46:36.915Z,10.60
2022-11-30T07:49:03.869Z,10.05
2022-11-30T07:51:30.363Z,10.98
2022-11-30T07:53:57.067Z,11.30
2022-11-30T07:56:23.644Z,11.30
2022-11-30T07:58:50.748Z,10.10
2022-11-30T08:01:19.176Z,10.32
2022-11-30T08:03:45.832Z,10.00
2022-11-30T08:06:18.769Z,10.13
2022-11-30T08:08:45.455Z,10.20
2022-11-30T08:11:12.971Z,10.10
2022-11-30T08:13:39.416Z,10.23
2022-11-30T08:16:07.105Z,9.55
2022-11-30T08:18:33.574Z,10.43
2022-11-30T08:21:00.803Z,10.20
2022-11-30T08:23:35.520Z,9.88
2022-11-30T08:26:02.709Z,10.23
2022-11-30T08:28:29.730Z,9.52
2022-11-30T08:31:00.999Z,10.05
2022-11-30T08:33:30.785Z,8.65
2022-11-30T08:36:07.367Z,9.55
2022-11-30T08:38:34.008Z,10.40
2022-11-30T08:41:00.720Z,8.25
2022-11-30T08:43:27.662Z,10.00
2022-11-30T08:45:54.475Z,9.38
2022-11-30T08:48:23.868Z,10.18
2022-11-30T08:50:50.335Z,8.85
2022-11-30T08:53:16.842Z,9.75
2022-11-30T08:55:43.288Z,9.57
2022-11-30T08:58:09.812Z,9.50
2022-11-30T09:00:36.167Z,8.35
2022-11-30T09:03:02.648Z,9.77
2022-11-30T09:05:29.157Z,9.90
2022-11-30T09:07:55.681Z,9.57
2022-11-30T09:10:22.336Z,9.38
2022-11-30T09:12:48.866Z,9.63
2022-11-30T09:15:15.305Z,10.10
2022-11-30T09:17:41.655Z,9.48
2022-11-30T09:20:08.291Z,9.27
2022-11-30T09:22:34.771Z,9.05
2022-11-30T09:25:01.214Z,9.40
2022-11-30T09:27:30.488Z,8.32
2022-11-30T09:29:57.331Z,8.52
2022-11-30T09:32:23.838Z,9.38
2022-11-30T09:34:50.867Z,8.93
2022-11-30T09:37:17.578Z,10.20
2022-11-30T09:39:44.151Z,10.00
2022-11-30T09:42:28.683Z,9.65
2022-11-30T09:45:04.555Z,8.50
2022-11-30T09:47:43.220Z,9.82
2022-11-30T09:50:18.400Z,9.52
2022-11-30T09:52:47.996Z,8.65
2022-11-30T09:55:18.252Z,10.18
2022-11-30T09:57:50.725Z,8.88
2022-11-30T10:02:44.066Z,9.85
2022-11-30T10:05:14.936Z,8.23
2022-11-30T10:08:06.109Z,9.55
2022-11-30T10:10:50.781Z,9.23
2022-11-30T10:13:29.612Z,9.05
2022-11-30T10:16:14.646Z,9.80
2022-11-30T10:18:51.059Z,9.38
2022-11-30T10:21:32.424Z,9.32
2022-11-30T10:24:17.769Z,9.80
2022-11-30T10:26:51.368Z,8.20
2022-11-30T10:29:19.238Z,8.30
2022-11-30T10:31:47.554Z,8.50
2022-11-30T10:34:31.754Z,9.18
2022-11-30T10:37:04.001Z,8.52
2022-11-30T10:39:33.589Z,9.13
2022-11-30T10:42:08.457Z,9.18
2022-11-30T10:44:36.307Z,7.85
2022-11-30T10:47:06.583Z,8.35
2022-11-30T10:49:33.872Z,9.57
2022-11-30T10:52:05.453Z,8.77
2022-11-30T10:54:32.284Z,8.73
2022-11-30T10:56:59.362Z,7.93
2022-11-30T10:59:34.756Z,9.50
2022-11-30T11:02:01.365Z,8.05
2022-11-30T11:04:28.057Z,8.85
2022-11-30T11:06:59.427Z,9.00
2022-11-30T11:09:28.642Z,10.23
2022-11-30T11:11:55.761Z,9.40
2022-11-30T11:14:23.056Z,9.45
2022-11-30T11:17:03.087Z,9.70
2022-11-30T11:19:39.958Z,9.18
2022-11-30T11:22:23.324Z,9.63
2022-11-30T11:24:50.658Z,9.10
2022-11-30T11:27:20.099Z,9.43
2022-11-30T11:29:56.210Z,8.68
2022-11-30T11:32:24.992Z,9.40
2022-11-30T11:34:51.707Z,9.05
2022-11-30T11:37:23.467Z,8.88
2022-11-30T11:40:01.119Z,9.77
2022-11-30T11:42:32.226Z,9.95
2022-11-30T11:44:59.788Z,9.68
2022-11-30T11:47:27.893Z,8.35
2022-11-30T11:50:05.288Z,8.70
2022-11-30T11:52:31.692Z,9.63
2022-11-30T11:55:05.350Z,7.90
2022-11-30T11:57:45.079Z,8.75
2022-11-30T12:00:16.043Z,8.30
2022-11-30T12:02:52.293Z,9.47
2022-11-30T12:05:25.172Z,8.40
2022-11-30T12:07:54.357Z,7.60
2022-11-30T12:10:52.454Z,9.32
2022-11-30T12:13:22.169Z,9.75
2022-11-30T12:15:51.319Z,8.07
2022-11-30T12:18:24.453Z,9.10
2022-11-30T12:20:55.995Z,7.65
2022-11-30T12:23:28.274Z,6.60
2022-11-30T12:26:14.927Z,8.32
2022-11-30T12:28:54.304Z,7.75
2022-11-30T12:31:20.867Z,8.57
2022-11-30T12:33:53.325Z,7.93
2022-11-30T12:38:49.130Z,9.00
2022-11-30T12:41:33.976Z,8.07
2022-11-30T12:44:22.586Z,9.00
2022-11-30T12:46:56.301Z,7.82
2022-11-30T12:49:35.468Z,9.40
2022-11-30T12:52:17.380Z,9.15
2022-11-30T12:54:50.713Z,8.65
2022-11-30T12:57:35.154Z,8.57
2022-11-30T13:00:20.122Z,9.18
2022-11-30T13:03:00.765Z,8.75
2022-11-30T13:05:33.116Z,9.30
2022-11-30T13:08:13.854Z,8.90
2022-11-30T13:10:45.860Z,8.27
2022-11-30T13:13:13.774Z,10.35
2022-11-30T13:15:43.523Z,8.77
2022-11-30T13:18:19.036Z,8.80
2022-11-30T13:20:49.069Z,9.27
2022-11-30T13:23:31.868Z,8.38
2022-11-30T13:26:09.767Z,9.02
2022-11-30T13:28:45.784Z,9.63
2022-11-30T13:31:18.212Z,9.07
2022-11-30T13:33:54.398Z,9.60
2022-11-30T13:36:40.189Z,10.23
2022-11-30T13:39:12.476Z,9.13
2022-11-30T13:41:39.490Z,9.80
2022-11-30T13:44:06.392Z,10.10
2022-11-30T13:46:32.882Z,9.85
2022-11-30T13:49:19.825Z,9.65
2022-11-30T13:51:50.234Z,8.45
2022-11-30T13:54:42.166Z,9.82
2022-11-30T13:57:27.454Z,9.70
2022-11-30T13:59:54.552Z,8.88
2022-11-30T14:05:17.016Z,9.13
2022-11-30T14:07:52.734Z,9.35
2022-11-30T14:10:33.042Z,9.77
2022-11-30T14:12:59.758Z,10.40
2022-11-30T14:15:35.312Z,10.95
2022-11-30T14:18:04.463Z,8.60
2022-11-30T14:20:37.751Z,10.05
2022-11-30T14:23:12.048Z,10.80
2022-11-30T14:25:41.859Z,10.70
2022-11-30T14:28:11.789Z,11.88
2022-11-30T14:30:39.960Z,9.43
2022-11-30T14:33:19.217Z,9.68
2022-11-30T14:35:54.708Z,11.00
2022-11-30T14:38:28.116Z,11.02
2022-11-30T14:40:55.048Z,10.15
2022-11-30T14:43:21.458Z,9.38
2022-11-30T14:46:09.199Z,11.43
2022-11-30T14:48:38.055Z,10.77
2022-11-30T14:51:04.635Z,10.65
2022-11-30T14:53:36.083Z,10.90
2022-11-30T14:56:05.586Z,11.38
2022-11-30T14:58:42.345Z,10.75
2022-11-30T15:01:20.107Z,11.75
2022-11-30T15:03:47.697Z,11.35
2022-11-30T15:06:15.025Z,10.27
2022-11-30T15:08:43.254Z,12.02
2022-11-30T15:11:11.097Z,11.70
2022-11-30T15:13:47.694Z,10.93
2022-11-30T15:16:21.859Z,11.15
2022-11-30T15:18:48.974Z,12.80
2022-11-30T15:21:21.022Z,11.90
2022-11-30T15:23:51.147Z,11.43
2022-11-30T15:26:18.011Z,12.10
2022-11-30T15:28:46.891Z,11.10
2022-11-30T15:31:14.887Z,11.23
2022-11-30T15:33:43.076Z,11.25
2022-11-30T15:36:23.438Z,11.32
2022-11-30T15:38:56.181Z,10.93
2022-11-30T15:41:24.416Z,11.30
2022-11-30T15:43:54.988Z,10.90
2022-11-30T15:46:30.419Z,11.13
2022-11-30T15:49:16.291Z,11.13
2022-11-30T15:51:44.599Z,9.55
2022-11-30T15:54:11.130Z,10.90
2022-11-30T15:56:38.003Z,10.63
2022-11-30T15:59:04.431Z,9.27
2022-11-30T16:01:32.247Z,10.05
2022-11-30T16:04:00.098Z,10.35
2022-11-30T16:06:29.638Z,10.90
2022-11-30T16:08:57.169Z,10.13
2022-11-30T16:11:23.630Z,12.98
2022-11-30T16:13:50.189Z,12.70
2022-11-30T16:16:21.897Z,11.65
2022-11-30T16:18:48.431Z,11.38
2022-11-30T16:21:16.522Z,11.82
2022-11-30T16:23:43.361Z,12.27
2022-11-30T16:26:35.716Z,11.10
2022-11-30T16:29:00.387Z,11.77
2022-11-30T16:31:27.492Z,11.30
2022-11-30T16:33:54.018Z,10.38
2022-11-30T16:36:21.251Z,11.52
2022-11-30T16:38:51.368Z,10.00
2022-11-30T16:41:19.392Z,11.77
2022-11-30T16:43:49.979Z,10.90
2022-11-30T16:46:18.336Z,11.15
2022-11-30T16:48:45.165Z,11.75
2022-11-30T16:51:14.765Z,10.50
2022-11-30T16:53:41.173Z,10.40
2022-11-30T16:56:10.485Z,10.95
2022-11-30T16:58:36.938Z,9.68
2022-11-30T17:01:04.338Z,9.30
2022-11-30T17:03:31.625Z,10.93
2022-11-30T17:05:57.986Z,10.43
2022-11-30T17:08:24.408Z,9.55
2022-11-30T17:10:52.115Z,9.00
2022-11-30T17:13:18.663Z,9.32
2022-11-30T17:15:45.143Z,10.15
2022-11-30T17:18:11.627Z,10.82
2022-11-30T17:20:38.447Z,9.75
2022-11-30T17:23:05.287Z,10.05
2022-11-30T17:25:31.883Z,9.25
2022-11-30T17:28:00.207Z,10.57
2022-11-30T17:30:27.814Z,9.73
2022-11-30T17:32:54.293Z,10.20
2022-11-30T17:35:20.717Z,9.95
2022-11-30T17:37:47.095Z,9.82
2022-11-30T17:40:15.543Z,9.57
2022-11-30T17:42:42.568Z,9.27
2022-11-30T17:45:09.242Z,10.52
2022-11-30T17:47:35.725Z,10.75
2022-11-30T17:50:02.425Z,9.88
2022-11-30T17:52:28.814Z,9.98
2022-11-30T17:54:55.253Z,10.07
2022-11-30T17:57:21.686Z,11.23
2022-11-30T17:59:48.071Z,9.95
2022-11-30T18:02:14.626Z,10.32
2022-11-30T18:04:41.204Z,9.52
2022-11-30T18:07:07.652Z,11.30
2022-11-30T18:09:39.288Z,10.23
2022-11-30T18:12:07.537Z,12.32
2022-11-30T18:14:34.145Z,9.55
2022-11-30T18:17:00.616Z,10.68
2022-11-30T18:19:27.097Z,12.13
2022-11-30T18:21:55.283Z,10.25
2022-11-30T18:24:25.220Z,11.35
2022-11-30T18:26:52.309Z,9.32
2022-11-30T18:29:18.796Z,11.70
2022-11-30T18:31:45.573Z,11.25
2022-11-30T18:34:12.017Z,12.93
2022-11-30T18:36:38.452Z,11.50
2022-11-30T18:39:05.407Z,11.95
2022-11-30T18:41:31.839Z,10.55
2022-11-30T18:44:00.638Z,11.88
2022-11-30T18:46:27.206Z,11.82
2022-11-30T18:48:54.665Z,13.18
2022-11-30T18:51:24.971Z,11.05
2022-11-30T18:53:57.830Z,10.90
2022-11-30T18:56:26.042Z,12.32
2022-11-30T18:58:56.775Z,11.55
2022-11-30T19:01:23.550Z,11.90
2022-11-30T19:03:51.339Z,11.77
2022-11-30T19:06:17.871Z,10.40
2022-11-30T19:08:44.378Z,11.10
2022-11-30T19:11:10.796Z,10.75
2022-11-30T19:13:37.195Z,12.38
2022-11-30T19:16:04.791Z,11.63
2022-11-30T19:18:31.535Z,12.00
2022-11-30T19:20:58.028Z,10.73
2022-11-30T19:23:24.454Z,10.73
2022-11-30T19:25:50.892Z,12.02
2022-11-30T19:28:17.694Z,10.60
2022-11-30T19:30:44.375Z,11.00
2022-11-30T19:33:10.781Z,12.10
2022-11-30T19:35:37.171Z,10.35
2022-11-30T19:38:03.566Z,10.82
2022-11-30T19:40:30.152Z,12.45
2022-11-30T19:42:56.789Z,11.35
2022-11-30T19:45:23.392Z,10.55
2022-11-30T19:47:49.795Z,11.18
2022-11-30T19:50:16.305Z,13.05
2022-11-30T19:52:42.713Z,12.93
2022-11-30T19:55:09.357Z,10.80
2022-11-30T19:57:36.238Z,12.07
2022-11-30T20:00:06.234Z,11.52
2022-11-30T20:02:33.239Z,11.93
2022-11-30T20:04:59.963Z,13.70
2022-11-30T20:07:26.934Z,11.45
2022-11-30T20:09:53.404Z,11.82
2022-11-30T20:12:19.810Z,13.35
2022-11-30T20:14:48.336Z,12.90
2022-11-30T20:17:14.923Z,13.20
2022-11-30T20:19:41.356Z,12.25
2022-11-30T20:22:09.504Z,13.48
2022-11-30T20:24:36.681Z,12.63
2022-11-30T20:27:04.052Z,13.38
2022-11-30T20:29:30.631Z,12.73
2022-11-30T20:31:57.181Z,14.05
2022-11-30T20:34:29.816Z,14.50
2022-11-30T20:37:00.422Z,14.75
2022-11-30T20:39:26.804Z,13.93
2022-11-30T20:41:53.254Z,13.98
2022-11-30T20:44:19.797Z,14.30
2022-11-30T20:46:46.478Z,13.93
2022-11-30T20:49:15.345Z,12.73
2022-11-30T20:51:41.767Z,14.88
2022-11-30T20:54:08.303Z,12.85
2022-11-30T20:56:36.637Z,12.65
2022-11-30T20:59:05.141Z,14.52
2022-11-30T21:01:31.815Z,12.55
2022-11-30T21:04:00.759Z,12.70
2022-11-30T21:06:28.105Z,13.15
2022-11-30T21:08:54.590Z,13.85
2022-11-30T21:11:21.370Z,13.30
2022-11-30T21:13:48.493Z,12.45
2022-11-30T21:16:15.985Z,12.10
2022-11-30T21:18:43.570Z,13.00
2022-11-30T21:21:11.063Z,12.55
2022-11-30T21:23:37.535Z,11.77
2022-11-30T21:26:04.868Z,14.07
2022-11-30T21:28:36.362Z,12.05
2022-11-30T21:31:04.830Z,12.05
2022-11-30T21:33:31.315Z,13.30
2022-11-30T21:35:57.726Z,12.35
2022-11-30T21:38:24.131Z,12.65
2022-11-30T21:41:00.244Z,12.18
2022-11-30T21:43:27.340Z,12.85
2022-11-30T21:45:58.117Z,12.75
2022-11-30T21:48:24.718Z,12.65
2022-11-30T21:51:01.497Z,12.10
2022-11-30T21:53:28.590Z,12.75
2022-11-30T21:55:55.944Z,12.52
2022-11-30T21:58:22.870Z,12.48
2022-11-30T22:00:55.937Z,13.88
2022-11-30T22:03:22.489Z,12.10
2022-11-30T22:06:08.412Z,12.82
2022-11-30T22:08:35.518Z,12.00
2022-11-30T22:11:02.833Z,11.75
2022-11-30T22:13:30.018Z,12.05
2022-11-30T22:15:57.634Z,11.13
2022-11-30T22:18:24.148Z,10.57
2022-11-30T22:20:50.572Z,11.40
2022-11-30T22:23:17.003Z,12.10
2022-11-30T22:25:43.492Z,11.38
2022-11-30T22:28:09.979Z,12.07
2022-11-30T22:30:36.561Z,11.10
2022-11-30T22:33:02.974Z,11.60
2022-11-30T22:35:29.411Z,10.50
2022-11-30T22:37:55.900Z,10.90
2022-11-30T22:40:22.281Z,11.00
2022-11-30T22:42:48.673Z,11.18
2022-11-30T22:45:15.081Z,11.07
2022-11-30T22:47:41.482Z,10.52
2022-11-30T22:50:08.093Z,10.15
2022-11-30T22:53:01.563Z,9.85
2022-11-30T22:55:21.085Z,10.40
2022-11-30T22:57:47.544Z,10.82
2022-11-30T23:00:14.195Z,10.13
2022-11-30T23:02:40.641Z,10.45
2022-11-30T23:05:07.215Z,11.00
2022-11-30T23:07:33.774Z,10.02
2022-11-30T23:10:00.255Z,10.15
2022-11-30T23:12:57.443Z,11.00
2022-11-30T23:15:13.172Z,10.25
2022-11-30T23:17:39.571Z,10.82
2022-11-30T23:20:06.393Z,9.65
2022-11-30T23:22:35.055Z,10.13
2022-11-30T23:25:01.525Z,9.88
2022-11-30T23:27:27.960Z,10.40
2022-11-30T23:29:54.400Z,10.15
2022-11-30T23:32:20.892Z,10.35
2022-11-30T23:34:50.643Z,10.93
2022-11-30T23:37:17.384Z,10.20
2022-11-30T23:39:43.799Z,10.63
2022-11-30T23:42:10.199Z,10.50
2022-11-30T23:44:36.628Z,9.88
2022-11-30T23:47:03.879Z,9.20
2022-11-30T23:49:30.596Z,10.50
2022-11-30T23:51:58.909Z,10.13
2022-11-30T23:54:25.369Z,9.60
2022-11-30T23:56:51.779Z,9.30
2022-11-30T23:59:18.223Z,10.27
